Time;durP1;ratioP1;P1;durP2;ratioP2;P2;SDS_P1;SDS_P2;PMS_P1;PMS_P2;Temp;Humidity;BMP_temperature;BMP_pressure;BME280_temperature;BME280_humidity;BME280_pressure;Samples;Min_cycle;Max_cycle;Signal;HPM_P1;HPM_P2
2021/12/21 00:04:28;;;;;;;26.85;11.88;;;;;;;-1.73;100.00;103423.56;10546529;28;20048;-61
2021/12/21 00:09:31;;;;;;;28.23;11.90;;;;;;;-1.85;100.00;103433.41;10546244;28;20495;-60
2021/12/21 00:14:48;;;;;;;28.38;11.43;;;;;;;-2.10;100.00;103409.38;10546300;28;20070;-60
2021/12/21 00:25:12;;;;;;;21.80;8.52;;;;;;;-2.21;100.00;103414.13;10545648;28;20381;-62
2021/12/21 00:30:15;;;;;;;16.85;9.57;;;;;;;-2.19;100.00;103409.91;10545373;28;20396;-60
2021/12/21 00:35:17;;;;;;;28.65;11.27;;;;;;;-2.15;100.00;103401.53;10546112;28;20050;-62
2021/12/21 00:40:20;;;;;;;21.95;9.20;;;;;;;-2.10;100.00;103400.00;10545480;28;20051;-60
2021/12/21 00:45:22;;;;;;;19.52;9.13;;;;;;;-2.30;100.00;103393.28;10545177;28;20412;-62
2021/12/21 00:50:25;;;;;;;18.40;8.43;;;;;;;-2.44;100.00;103388.50;10544754;28;20084;-59
2021/12/21 00:55:27;;;;;;;23.88;10.68;;;;;;;-2.33;100.00;103394.00;10544080;28;20060;-62
2021/12/21 01:00:30;;;;;;;22.70;11.05;;;;;;;-2.42;100.00;103385.97;10543514;28;20510;-60
2021/12/21 01:05:44;;;;;;;19.65;9.38;;;;;;;-2.45;100.00;103386.72;10544201;28;20480;-60
2021/12/21 01:16:23;;;;;;;22.30;9.50;;;;;;;-2.65;100.00;103377.41;10544203;28;20058;-61
2021/12/21 01:21:30;;;;;;;26.63;11.65;;;;;;;-2.43;100.00;103391.91;10542491;28;20062;-61
2021/12/21 01:32:00;;;;;;;18.65;9.20;;;;;;;-2.33;100.00;103390.59;10543435;28;20052;-61
2021/12/21 01:37:16;;;;;;;22.92;11.52;;;;;;;-2.61;100.00;103381.81;10543282;28;20062;-60
2021/12/21 01:42:31;;;;;;;19.17;9.25;;;;;;;-2.67;100.00;103374.75;10542439;28;20044;-59
2021/12/21 01:52:54;;;;;;;22.85;11.30;;;;;;;-2.50;100.00;103379.69;10542380;28;20123;-60
2021/12/21 01:57:57;;;;;;;25.05;10.60;;;;;;;-2.61;100.00;103369.00;10541249;28;20052;-59
2021/12/21 02:03:02;;;;;;;22.35;10.43;;;;;;;-2.68;100.00;103364.44;10542081;28;20051;-60
2021/12/21 02:08:05;;;;;;;15.95;9.88;;;;;;;-2.53;100.00;103371.84;10541522;28;20045;-59
2021/12/21 02:13:07;;;;;;;20.35;10.10;;;;;;;-2.39;100.00;103374.94;10541586;28;20048;-61
2021/12/21 02:23:37;;;;;;;21.88;10.77;;;;;;;-2.80;100.00;103363.16;10540838;28;20476;-59
2021/12/21 02:33:42;;;;;;;17.42;10.70;;;;;;;-2.55;100.00;103368.38;10541345;28;20051;-61
2021/12/21 02:38:44;;;;;;;18.42;10.60;;;;;;;-2.40;100.00;103374.06;10540517;28;20530;-60
2021/12/21 02:43:47;;;;;;;27.90;11.57;;;;;;;-2.76;100.00;103348.75;10540236;28;20040;-59
2021/12/21 02:48:49;;;;;;;18.75;9.32;;;;;;;-2.60;100.00;103357.06;10540186;28;20055;-60
2021/12/21 02:53:52;;;;;;;23.23;10.00;;;;;;;-2.90;100.00;103345.66;10539768;28;20052;-60
2021/12/21 02:58:54;;;;;;;21.73;10.45;;;;;;;-2.85;100.00;103339.00;10540444;28;20070;-62
2021/12/21 03:03:57;;;;;;;19.40;9.95;;;;;;;-2.95;100.00;103333.47;10538685;28;20051;-61
2021/12/21 03:09:00;;;;;;;25.75;10.73;;;;;;;-2.70;100.00;103337.88;10539098;28;20101;-61
2021/12/21 03:14:03;;;;;;;19.85;9.65;;;;;;;-3.05;100.00;103319.41;10539512;28;20047;-59
2021/12/21 03:19:08;;;;;;;18.67;9.65;;;;;;;-2.65;100.00;103341.50;10539555;28;20483;-60
2021/12/21 03:24:10;;;;;;;24.45;10.27;;;;;;;-2.95;100.00;103325.78;10548184;28;20377;-59
2021/12/21 03:29:13;;;;;;;18.95;9.75;;;;;;;-2.79;100.00;103330.72;10547944;28;20044;-60
2021/12/21 03:34:16;;;;;;;24.60;10.13;;;;;;;-2.96;100.00;103326.59;10548563;28;20044;-60
2021/12/21 03:39:19;;;;;;;21.35;10.20;;;;;;;-2.95;100.00;103338.59;10546436;28;20044;-59
2021/12/21 03:44:22;;;;;;;28.83;11.30;;;;;;;-2.97;100.00;103335.97;10547638;28;20048;-60
2021/12/21 03:54:38;;;;;;;26.50;10.70;;;;;;;-3.00;100.00;103330.72;10547491;28;20060;-59
2021/12/21 03:59:43;;;;;;;17.88;9.82;;;;;;;-3.24;100.00;103318.69;10546925;28;20063;-60
2021/12/21 04:04:48;;;;;;;17.35;9.95;;;;;;;-3.06;100.00;103333.94;10546460;28;20381;-60
2021/12/21 04:09:50;;;;;;;24.38;9.40;;;;;;;-3.02;100.00;103325.53;10546256;28;20054;-60
2021/12/21 04:14:54;;;;;;;16.63;9.30;;;;;;;-3.17;100.00;103325.81;10546358;28;20054;-60
2021/12/21 04:19:56;;;;;;;23.73;10.52;;;;;;;-3.28;100.00;103321.06;10546292;28;20055;-60
2021/12/21 04:24:59;;;;;;;29.05;10.45;;;;;;;-3.24;100.00;103316.13;10545714;28;20051;-59
2021/12/21 04:30:01;;;;;;;19.27;9.77;;;;;;;-3.36;100.00;103307.97;10545265;28;20500;-59
2021/12/21 04:35:04;;;;;;;27.05;11.98;;;;;;;-3.14;100.00;103317.38;10545535;28;20066;-59
2021/12/21 04:40:12;;;;;;;23.05;9.70;;;;;;;-2.90;100.00;103334.53;10545104;28;20044;-59
2021/12/21 04:45:14;;;;;;;26.13;11.32;;;;;;;-3.22;100.00;103311.06;10545082;28;20047;-60
2021/12/21 04:50:17;;;;;;;24.63;10.07;;;;;;;-3.02;100.00;103322.13;10544892;28;20047;-60
2021/12/21 04:55:20;;;;;;;27.23;10.55;;;;;;;-3.42;100.00;103307.69;10545537;28;20059;-59
2021/12/21 05:00:23;;;;;;;17.90;10.00;;;;;;;-3.32;100.00;103308.94;10544555;28;20104;-59
2021/12/21 05:05:26;;;;;;;20.02;11.00;;;;;;;-3.03;100.00;103316.09;10544545;28;20406;-60
2021/12/21 05:10:28;;;;;;;25.42;11.93;;;;;;;-3.21;100.00;103311.13;10542947;28;20055;-60
2021/12/21 05:15:30;;;;;;;28.52;12.13;;;;;;;-3.25;100.00;103300.69;10543993;28;20044;-60
2021/12/21 05:20:33;;;;;;;22.20;11.23;;;;;;;-3.35;100.00;103296.88;10544124;28;20044;-60
2021/12/21 05:25:36;;;;;;;24.98;11.63;;;;;;;-3.37;100.00;103301.06;10543656;28;20054;-59
2021/12/21 05:30:39;;;;;;;29.60;11.95;;;;;;;-3.40;100.00;103309.50;10543691;28;20047;-59
2021/12/21 05:35:42;;;;;;;24.75;11.00;;;;;;;-3.53;100.00;103307.28;10543001;28;20557;-60
2021/12/21 05:40:46;;;;;;;21.92;11.18;;;;;;;-3.70;100.00;103303.97;10542637;28;20126;-59
2021/12/21 05:45:48;;;;;;;20.80;10.73;;;;;;;-3.87;100.00;103300.72;10542435;28;20044;-59
2021/12/21 05:50:51;;;;;;;32.05;12.38;;;;;;;-3.65;100.00;103319.53;10542412;28;20063;-59
2021/12/21 05:55:53;;;;;;;23.67;11.65;;;;;;;-3.78;100.00;103301.13;10542466;28;20063;-59
2021/12/21 06:00:56;;;;;;;27.10;11.43;;;;;;;-3.40;100.00;103324.88;10542060;28;20040;-59
2021/12/21 06:05:58;;;;;;;30.48;12.18;;;;;;;-3.73;100.00;103311.56;10542328;28;20097;-59
2021/12/21 06:11:05;;;;;;;24.17;11.90;;;;;;;-3.93;100.00;103297.91;10540308;28;20400;-58
2021/12/21 06:26:31;;;;;;;26.03;12.33;;;;;;;-3.59;100.00;103309.56;10541077;28;20055;-60
2021/12/21 06:31:33;;;;;;;25.25;11.27;;;;;;;-3.79;100.00;103304.47;10541431;28;20040;-59
2021/12/21 06:36:35;;;;;;;26.35;12.50;;;;;;;-3.87;100.00;103305.81;10540464;28;20059;-61
2021/12/21 06:41:38;;;;;;;27.33;12.60;;;;;;;-3.80;100.00;103310.41;10540641;28;20050;-59
2021/12/21 06:51:52;;;;;;;24.17;13.05;;;;;;;-3.71;100.00;103314.19;10540744;28;20047;-60
2021/12/21 06:56:54;;;;;;;26.50;12.95;;;;;;;-3.45;100.00;103318.69;10539940;28;20048;-59
2021/12/21 07:01:57;;;;;;;24.27;13.23;;;;;;;-3.71;100.00;103306.50;10540195;28;20048;-59
2021/12/21 07:06:59;;;;;;;25.48;14.40;;;;;;;-3.94;100.00;103298.72;10539780;28;20047;-59
2021/12/21 07:22:32;;;;;;;27.58;13.55;;;;;;;-3.85;100.00;103311.03;10539407;28;20127;-59
2021/12/21 07:27:34;;;;;;;27.08;12.68;;;;;;;-3.84;100.00;103318.75;10539205;28;20044;-59
2021/12/21 07:32:37;;;;;;;26.25;14.73;;;;;;;-3.93;100.00;103318.38;10539263;28;20050;-60
2021/12/21 07:37:39;;;;;;;33.28;15.43;;;;;;;-3.74;100.00;103323.47;10538356;28;20044;-59
2021/12/21 07:42:42;;;;;;;24.67;15.05;;;;;;;-3.84;100.00;103307.66;10538922;28;20048;-59
2021/12/21 07:47:44;;;;;;;29.08;13.35;;;;;;;-3.93;100.00;103320.94;10539065;28;20044;-58
2021/12/21 07:52:47;;;;;;;26.58;13.82;;;;;;;-3.76;100.00;103337.88;10539560;28;20079;-58
2021/12/21 07:57:53;;;;;;;35.35;14.95;;;;;;;-4.11;100.00;103334.66;10539057;28;20048;-59
2021/12/21 08:02:56;;;;;;;29.73;15.75;;;;;;;-3.92;100.00;103344.06;10538736;28;20040;-60
2021/12/21 08:08:18;;;;;;;33.72;15.50;;;;;;;-3.54;100.00;103349.03;10543500;28;20048;-58
2021/12/21 08:13:23;;;;;;;27.13;14.10;;;;;;;-3.80;100.00;103330.00;10545133;28;20079;-59
2021/12/21 08:18:25;;;;;;;33.63;16.30;;;;;;;-3.43;100.00;103332.44;10546158;28;20488;-60
2021/12/21 08:23:28;;;;;;;26.48;13.85;;;;;;;-3.69;100.00;103328.78;10545642;28;20050;-59
2021/12/21 08:28:30;;;;;;;33.38;15.45;;;;;;;-3.66;100.00;103338.31;10545643;28;20403;-59
2021/12/21 08:33:32;;;;;;;33.10;15.23;;;;;;;-3.61;100.00;103342.78;10545593;28;20040;-60
2021/12/21 08:38:41;;;;;;;37.42;15.48;;;;;;;-3.63;100.00;103344.41;10545465;28;20415;-61
2021/12/21 08:43:43;;;;;;;32.13;15.60;;;;;;;-3.38;100.00;103364.25;10545222;28;20051;-59
2021/12/21 08:48:47;;;;;;;27.17;13.77;;;;;;;-3.41;100.00;103365.81;10545013;28;20044;-59
2021/12/21 08:53:49;;;;;;;27.92;15.18;;;;;;;-3.29;100.00;103358.63;10544783;28;20460;-61
2021/12/21 08:58:51;;;;;;;32.15;16.45;;;;;;;-2.93;100.00;103383.97;10545095;28;20058;-58
2021/12/21 09:03:54;;;;;;;30.00;15.82;;;;;;;-2.94;100.00;103381.34;10542846;28;20047;-61
2021/12/21 09:08:56;;;;;;;33.20;16.80;;;;;;;-3.07;100.00;103374.88;10502214;28;20435;-57
2021/12/21 09:13:59;;;;;;;34.63;16.75;;;;;;;-3.11;100.00;103378.13;10502147;28;20045;-60
2021/12/21 09:19:03;;;;;;;33.95;17.00;;;;;;;-2.78;100.00;103382.84;10508007;28;20064;-59
2021/12/21 09:24:05;;;;;;;31.80;17.25;;;;;;;-2.65;100.00;103385.94;10501557;28;20048;-61
2021/12/21 09:29:09;;;;;;;35.30;16.70;;;;;;;-2.30;100.00;103411.22;10532120;28;20051;-60
2021/12/21 09:34:11;;;;;;;70.72;27.30;;;;;;;1.89;100.00;103495.84;10542394;28;20044;-62
2021/12/21 09:39:13;;;;;;;37.35;19.70;;;;;;;1.75;100.00;103449.03;10540412;28;20051;-61
2021/12/21 09:44:17;;;;;;;37.70;19.02;;;;;;;0.46;100.00;103413.25;10539693;28;20055;-62
2021/12/21 09:49:19;;;;;;;29.35;17.45;;;;;;;-0.79;100.00;103388.16;10541210;28;20119;-61
2021/12/21 09:54:22;;;;;;;29.35;17.30;;;;;;;-0.57;100.00;103395.72;10540444;28;20506;-61
2021/12/21 09:59:25;;;;;;;32.47;18.58;;;;;;;-1.24;100.00;103368.75;10537378;28;20040;-64
2021/12/21 10:04:28;;;;;;;31.20;17.98;;;;;;;-1.39;100.00;103369.09;10538040;28;20393;-59
2021/12/21 10:09:37;;;;;;;36.53;19.13;;;;;;;-1.66;100.00;103358.75;10540365;28;20044;-60
2021/12/21 10:14:39;;;;;;;34.75;19.27;;;;;;;-1.48;100.00;103361.06;10537955;28;20048;-61
2021/12/21 10:19:43;;;;;;;33.90;19.17;;;;;;;-1.49;100.00;103369.63;10539804;28;20048;-60
2021/12/21 10:24:51;;;;;;;37.97;18.98;;;;;;;-1.50;100.00;103362.72;10539687;28;20416;-60
2021/12/21 10:29:59;;;;;;;33.70;18.88;;;;;;;-1.64;100.00;103346.84;10537543;28;20040;-60
2021/12/21 10:35:07;;;;;;;35.60;19.60;;;;;;;-1.67;100.00;103338.16;10539607;28;20047;-60
2021/12/21 10:40:28;;;;;;;41.20;21.08;;;;;;;-0.70;100.00;103356.72;10535484;28;20063;-61
2021/12/21 10:45:38;;;;;;;38.28;20.98;;;;;;;-0.41;100.00;103384.16;10535697;28;20044;-61
2021/12/21 10:50:41;;;;;;;38.05;22.27;;;;;;;-0.47;100.00;103376.28;10538702;28;20051;-62
2021/12/21 10:55:43;;;;;;;40.92;20.40;;;;;;;-0.86;100.00;103352.78;10538684;28;20076;-61
2021/12/21 11:00:53;;;;;;;41.97;22.25;;;;;;;0.26;100.00;103406.69;10537224;28;20419;-61
2021/12/21 11:06:06;;;;;;;39.85;20.67;;;;;;;0.50;100.00;103390.97;10525260;28;20051;-61
2021/12/21 11:11:22;;;;;;;36.97;22.05;;;;;;;0.35;100.00;103360.53;10537509;28;20044;-61
2021/12/21 11:16:31;;;;;;;41.83;20.30;;;;;;;-0.35;100.00;103323.41;10538237;28;20523;-62
2021/12/21 11:21:33;;;;;;;32.45;18.95;;;;;;;-0.59;100.00;103309.88;10538448;28;20041;-62
2021/12/21 11:26:37;;;;;;;37.58;20.17;;;;;;;-0.68;100.00;103319.03;10539427;28;20044;-61
2021/12/21 11:31:42;;;;;;;34.92;21.88;;;;;;;-0.83;100.00;103320.28;10539393;28;20055;-61
2021/12/21 11:42:09;;;;;;;35.78;21.80;;;;;;;-0.15;100.00;103330.00;10542110;28;20044;-63
2021/12/21 11:47:16;;;;;;;34.45;21.08;;;;;;;0.42;100.00;103352.16;10546241;28;20052;-60
2021/12/21 11:52:23;;;;;;;36.90;22.88;;;;;;;1.95;100.00;103384.88;10546391;28;20048;-62
2021/12/21 11:57:39;;;;;;;30.90;20.23;;;;;;;0.49;100.00;103296.47;10547014;28;20055;-60
2021/12/21 12:02:42;;;;;;;37.55;21.65;;;;;;;0.49;100.00;103306.78;10547046;28;20214;-61
2021/12/21 12:07:45;;;;;;;29.13;20.52;;;;;;;-0.05;100.00;103279.59;10546704;28;20044;-61
2021/12/21 12:12:47;;;;;;;34.08;22.25;;;;;;;-0.46;100.00;103275.06;10545551;28;20044;-61
2021/12/21 12:17:51;;;;;;;40.10;21.83;;;;;;;-0.11;100.00;103289.75;10546458;28;20043;-61
2021/12/21 12:23:04;;;;;;;43.83;22.38;;;;;;;-0.29;100.00;103279.81;10546290;28;20123;-60
2021/12/21 12:28:07;;;;;;;36.28;21.20;;;;;;;-0.50;100.00;103268.09;10546137;28;20504;-61
2021/12/21 12:33:09;;;;;;;39.97;23.33;;;;;;;-0.53;100.00;103268.00;10544501;28;20499;-60
2021/12/21 12:38:23;;;;;;;40.47;23.80;;;;;;;-0.66;100.00;103259.06;10545381;28;20499;-60
2021/12/21 12:43:28;;;;;;;36.30;21.95;;;;;;;-0.61;100.00;103254.91;10545277;28;20055;-61
2021/12/21 12:48:38;;;;;;;36.72;22.67;;;;;;;-0.16;100.00;103263.88;10545295;28;20041;-60
2021/12/21 12:53:45;;;;;;;35.40;22.23;;;;;;;0.13;100.00;103282.66;10542474;28;20051;-62
2021/12/21 12:58:57;;;;;;;36.15;21.98;;;;;;;-0.51;100.00;103248.31;10543401;28;20101;-61
2021/12/21 13:04:04;;;;;;;38.28;22.67;;;;;;;-0.72;100.00;103237.41;10544647;28;20044;-61
2021/12/21 13:09:10;;;;;;;40.83;24.98;;;;;;;-0.72;100.00;103224.56;10544730;28;20127;-59
2021/12/21 13:14:15;;;;;;;37.05;23.98;;;;;;;-0.72;100.00;103238.31;10544522;28;20059;-59
2021/12/21 13:19:19;;;;;;;40.42;24.63;;;;;;;-0.67;100.00;103230.69;10544226;28;20048;-61
2021/12/21 13:24:29;;;;;;;42.95;27.20;;;;;;;-0.75;100.00;103221.06;10542245;28;20567;-63
2021/12/21 13:29:34;;;;;;;40.22;25.58;;;;;;;-0.68;100.00;103221.25;10542589;28;20405;-61
2021/12/21 13:34:39;;;;;;;40.72;25.08;;;;;;;-0.94;100.00;103217.09;10543322;28;20127;-60
2021/12/21 13:39:47;;;;;;;39.65;24.13;;;;;;;-0.85;100.00;103224.22;10543031;28;20488;-59
2021/12/21 13:44:53;;;;;;;38.45;25.60;;;;;;;-0.89;100.00;103219.81;10543201;28;20491;-60
2021/12/21 13:50:11;;;;;;;37.50;24.38;;;;;;;-1.14;100.00;103206.22;10543267;28;20055;-60
2021/12/21 13:55:27;;;;;;;50.33;28.55;;;;;;;-1.07;100.00;103212.44;10541436;28;20055;-60
2021/12/21 14:00:31;;;;;;;45.63;29.73;;;;;;;-1.06;100.00;103223.59;10540683;28;20048;-60
2021/12/21 14:05:44;;;;;;;50.55;29.23;;;;;;;-1.08;100.00;103217.53;10541923;28;20127;-59
2021/12/21 14:10:49;;;;;;;48.80;29.60;;;;;;;-1.12;100.00;103220.00;10540704;28;20048;-60
2021/12/21 14:15:51;;;;;;;39.70;23.83;;;;;;;-0.95;100.00;103229.91;10540381;28;20044;-60
2021/12/21 14:21:09;;;;;;;45.58;26.08;;;;;;;-1.29;100.00;103205.78;10541338;28;20051;-60
2021/12/21 14:26:23;;;;;;;36.53;21.90;;;;;;;-1.46;100.00;103205.25;10541581;28;20047;-62
2021/12/21 14:31:41;;;;;;;41.58;22.77;;;;;;;-1.34;100.00;103222.75;10541008;28;20044;-60
2021/12/21 14:36:43;;;;;;;32.00;18.27;;;;;;;-1.24;100.00;103226.50;10541156;28;20075;-60
2021/12/21 14:41:49;;;;;;;36.85;19.15;;;;;;;-1.33;100.00;103227.94;10540562;28;20498;-59
2021/12/21 14:47:05;;;;;;;30.38;19.08;;;;;;;-1.53;100.00;103222.19;10541014;28;20047;-61
2021/12/21 14:52:20;;;;;;;38.85;20.48;;;;;;;-1.67;100.00;103209.72;10540414;28;20056;-61
2021/12/21 14:57:44;;;;;;;33.90;19.77;;;;;;;-1.48;100.00;103218.88;10540553;28;20066;-59
2021/12/21 15:02:50;;;;;;;34.35;20.40;;;;;;;-1.42;100.00;103222.50;10540161;28;20063;-59
2021/12/21 15:07:54;;;;;;;33.10;19.25;;;;;;;-1.73;100.00;103212.94;10539773;28;20048;-59
2021/12/21 15:13:03;;;;;;;26.15;18.35;;;;;;;-1.70;100.00;103223.31;10539972;28;20054;-61
2021/12/21 15:18:10;;;;;;;33.13;18.40;;;;;;;-1.90;100.00;103226.13;10540072;28;20079;-60
2021/12/21 15:23:12;;;;;;;32.20;18.33;;;;;;;-1.88;100.00;103231.31;10539547;28;20097;-59
2021/12/21 15:28:15;;;;;;;33.85;18.85;;;;;;;-1.98;100.00;103232.69;10539215;28;20051;-59
2021/12/21 15:33:18;;;;;;;39.28;19.73;;;;;;;-1.86;100.00;103237.38;10539484;28;20048;-58
2021/12/21 15:38:20;;;;;;;28.77;17.45;;;;;;;-2.09;100.00;103232.31;10539269;28;20511;-61
2021/12/21 15:43:30;;;;;;;32.40;18.05;;;;;;;-2.10;100.00;103230.59;10538838;28;20495;-60
2021/12/21 15:48:33;;;;;;;31.40;18.58;;;;;;;-2.27;100.00;103236.81;10539062;28;20044;-60
2021/12/21 15:53:36;;;;;;;37.88;20.80;;;;;;;-2.46;100.00;103231.03;10538678;28;20060;-60
2021/12/21 15:58:38;;;;;;;36.55;19.63;;;;;;;-2.40;100.00;103240.66;10537781;28;20052;-59
2021/12/21 16:03:43;;;;;;;30.10;16.73;;;;;;;-2.39;100.00;103239.81;10537260;28;20512;-59
2021/12/21 16:08:45;;;;;;;33.55;17.73;;;;;;;-2.41;100.00;103238.03;10539231;28;20055;-61
2021/12/21 16:13:47;;;;;;;35.30;17.45;;;;;;;-2.39;100.00;103228.69;10538484;28;20055;-60
2021/12/21 16:18:50;;;;;;;37.85;19.67;;;;;;;-2.45;100.00;103216.53;10538987;28;20048;-60
2021/12/21 16:23:53;;;;;;;31.52;16.90;;;;;;;-2.31;100.00;103224.69;10538423;28;20503;-60
2021/12/21 16:28:56;;;;;;;44.28;19.50;;;;;;;-2.49;100.00;103219.78;10541432;28;20476;-61
2021/12/21 16:33:59;;;;;;;33.28;17.42;;;;;;;-2.44;100.00;103225.94;10545620;28;20442;-61
2021/12/21 16:39:05;;;;;;;33.22;16.80;;;;;;;-2.68;100.00;103218.25;10545573;28;20044;-61
2021/12/21 16:44:09;;;;;;;36.80;19.67;;;;;;;-2.51;100.00;103229.13;10544187;28;20131;-60
2021/12/21 16:49:11;;;;;;;35.42;18.63;;;;;;;-2.78;100.00;103223.88;10545028;28;20480;-61
2021/12/21 16:54:13;;;;;;;30.55;18.40;;;;;;;-2.69;100.00;103224.19;10543236;28;20515;-59
2021/12/21 16:59:16;;;;;;;32.80;19.02;;;;;;;-2.68;100.00;103228.53;10545281;28;20056;-61
2021/12/21 17:04:18;;;;;;;37.08;20.27;;;;;;;-2.55;100.00;103240.09;10544106;28;20056;-60
2021/12/21 17:09:21;;;;;;;40.95;19.67;;;;;;;-2.65;100.00;103233.75;10543436;28;20127;-60
2021/12/21 17:14:23;;;;;;;40.03;19.67;;;;;;;-2.60;100.00;103233.94;10543853;28;20054;-60
2021/12/21 17:19:26;;;;;;;39.67;19.13;;;;;;;-2.83;100.00;103237.38;10543542;28;20427;-62
2021/12/21 17:24:28;;;;;;;40.25;21.35;;;;;;;-2.54;100.00;103252.09;10543404;28;20040;-60
2021/12/21 17:29:30;;;;;;;38.33;20.63;;;;;;;-2.85;100.00;103236.47;10543339;28;20391;-60
2021/12/21 17:34:32;;;;;;;35.92;23.17;;;;;;;-2.81;100.00;103242.56;10543900;28;20055;-61
2021/12/21 17:39:35;;;;;;;44.05;21.73;;;;;;;-2.92;100.00;103239.63;10542354;28;20052;-61
2021/12/21 17:44:42;;;;;;;37.70;20.83;;;;;;;-2.68;100.00;103255.03;10543669;28;20044;-60
2021/12/21 17:49:44;;;;;;;36.60;21.45;;;;;;;-2.68;100.00;103249.91;10542673;28;20090;-59
2021/12/21 17:54:49;;;;;;;37.38;20.05;;;;;;;-2.83;100.00;103244.22;10542287;28;20056;-60
2021/12/21 17:59:52;;;;;;;36.60;20.50;;;;;;;-2.91;100.00;103248.16;10542269;28;20044;-59
2021/12/21 18:04:59;;;;;;;37.13;21.20;;;;;;;-2.74;100.00;103252.25;10542150;28;20055;-60
2021/12/21 18:10:02;;;;;;;50.22;25.33;;;;;;;-2.67;100.00;103250.78;10542041;28;20044;-60
2021/12/21 18:15:05;;;;;;;42.53;23.80;;;;;;;-3.09;100.00;103240.66;10541734;28;20044;-60
2021/12/21 18:20:10;;;;;;;46.75;23.20;;;;;;;-3.00;100.00;103247.00;10541338;28;20058;-61
2021/12/21 18:25:12;;;;;;;36.90;23.25;;;;;;;-3.02;100.00;103247.78;10541201;28;20040;-61
2021/12/21 18:30:15;;;;;;;35.63;21.55;;;;;;;-3.01;100.00;103246.94;10540115;28;20044;-61
2021/12/21 18:35:18;;;;;;;34.10;21.33;;;;;;;-2.93;100.00;103244.69;10541133;28;20050;-60
2021/12/21 18:40:24;;;;;;;43.85;24.33;;;;;;;-3.16;100.00;103226.75;10540786;28;20063;-60
2021/12/21 18:45:27;;;;;;;40.22;22.92;;;;;;;-2.59;100.00;103264.75;10540466;28;20051;-62
2021/12/21 18:50:30;;;;;;;39.13;21.48;;;;;;;-2.95;100.00;103251.44;10539968;28;20438;-60
2021/12/21 18:55:32;;;;;;;41.88;25.42;;;;;;;-3.13;100.00;103236.22;10540115;28;20044;-61
2021/12/21 19:00:38;;;;;;;42.38;24.48;;;;;;;-3.19;100.00;103221.50;10540044;28;20052;-60
2021/12/21 19:05:42;;;;;;;34.03;19.98;;;;;;;-3.33;100.00;103225.19;10540225;28;20044;-61
2021/12/21 19:10:45;;;;;;;41.67;23.13;;;;;;;-3.01;100.00;103247.84;10538684;28;20040;-61
2021/12/21 19:15:47;;;;;;;44.13;24.05;;;;;;;-3.22;100.00;103253.00;10540382;28;20040;-61
2021/12/21 19:20:52;;;;;;;50.75;24.73;;;;;;;-3.23;100.00;103237.56;10539703;28;20075;-61
2021/12/21 19:25:55;;;;;;;34.45;20.48;;;;;;;-3.60;100.00;103223.28;10540309;28;20062;-59
2021/12/21 19:30:57;;;;;;;35.45;21.02;;;;;;;-3.41;100.00;103223.22;10539315;28;20040;-60
2021/12/21 19:36:02;;;;;;;35.67;20.67;;;;;;;-3.25;100.00;103239.19;10539342;28;20049;-60
2021/12/21 19:41:05;;;;;;;42.20;22.23;;;;;;;-3.43;100.00;103232.53;10538043;28;20048;-60
2021/12/21 19:46:07;;;;;;;37.53;20.88;;;;;;;-3.62;100.00;103230.06;10539141;28;20055;-60
2021/12/21 19:51:09;;;;;;;37.17;20.52;;;;;;;-3.70;100.00;103227.16;10538741;28;20048;-60
2021/12/21 19:56:16;;;;;;;39.35;21.90;;;;;;;-3.34;100.00;103239.72;10538895;28;20491;-61
2021/12/21 20:01:19;;;;;;;41.28;20.40;;;;;;;-3.45;100.00;103235.84;10539508;28;20044;-60
2021/12/21 20:06:21;;;;;;;45.22;24.17;;;;;;;-3.22;100.00;103239.31;10545869;28;20048;-61
2021/12/21 20:11:38;;;;;;;47.92;23.73;;;;;;;-3.61;100.00;103235.22;10545270;28;20071;-59
2021/12/21 20:16:41;;;;;;;45.25;21.38;;;;;;;-3.38;100.00;103228.47;10547462;28;20048;-61
2021/12/21 20:21:43;;;;;;;47.78;25.30;;;;;;;-3.79;100.00;103225.09;10546147;28;20055;-61
2021/12/21 20:26:47;;;;;;;39.67;22.65;;;;;;;-3.55;100.00;103242.28;10546647;28;20050;-60
2021/12/21 20:31:50;;;;;;;38.15;20.27;;;;;;;-3.81;100.00;103225.88;10545490;28;20059;-61
2021/12/21 20:36:54;;;;;;;36.75;22.75;;;;;;;-3.88;100.00;103240.09;10546106;28;20074;-60
2021/12/21 20:41:57;;;;;;;41.90;20.48;;;;;;;-4.05;100.00;103231.72;10545611;28;20044;-60
2021/12/21 20:47:00;;;;;;;31.35;19.63;;;;;;;-4.11;100.00;103228.91;10545214;28;20044;-60
2021/12/21 20:52:04;;;;;;;37.75;21.00;;;;;;;-4.07;100.00;103237.56;10545286;28;20048;-60
2021/12/21 20:57:06;;;;;;;33.63;18.50;;;;;;;-4.13;100.00;103221.16;10545389;28;20063;-60
2021/12/21 21:02:09;;;;;;;31.25;18.73;;;;;;;-4.19;100.00;103220.00;10544886;28;20039;-61
2021/12/21 21:07:17;;;;;;;37.70;19.55;;;;;;;-4.13;100.00;103226.28;10544582;28;20492;-60
2021/12/21 21:12:19;;;;;;;34.42;19.55;;;;;;;-4.37;100.00;103223.53;10543962;28;20048;-60
2021/12/21 21:17:22;;;;;;;39.75;19.77;;;;;;;-4.31;100.00;103221.22;10543298;28;20048;-60
2021/12/21 21:22:24;;;;;;;40.10;21.02;;;;;;;-4.36;100.00;103216.75;10544123;28;20059;-59
2021/12/21 21:27:26;;;;;;;32.15;17.38;;;;;;;-4.59;100.00;103208.97;10543489;28;20044;-61
2021/12/21 21:32:29;;;;;;;41.65;21.90;;;;;;;-4.45;100.00;103218.88;10542947;28;20380;-62
2021/12/21 21:37:31;;;;;;;38.65;20.73;;;;;;;-4.51;100.00;103212.69;10543604;28;20080;-60
2021/12/21 21:42:33;;;;;;;40.83;20.38;;;;;;;-4.62;100.00;103213.94;10542891;28;20044;-60
2021/12/21 21:47:36;;;;;;;37.75;19.13;;;;;;;-4.35;100.00;103229.59;10542665;28;20373;-60
2021/12/21 21:52:39;;;;;;;44.55;19.65;;;;;;;-4.80;100.00;103202.88;10542649;28;20044;-60
2021/12/21 21:57:42;;;;;;;38.88;20.67;;;;;;;-4.66;100.00;103214.59;10542343;28;20492;-61
2021/12/21 22:02:45;;;;;;;36.25;19.00;;;;;;;-4.60;100.00;103225.09;10541990;28;20480;-59
2021/12/21 22:07:48;;;;;;;39.15;20.30;;;;;;;-4.97;100.00;103215.78;10541992;28;20119;-60
2021/12/21 22:12:52;;;;;;;38.40;19.05;;;;;;;-4.73;100.00;103213.44;10541798;28;20047;-61
2021/12/21 22:17:54;;;;;;;42.17;20.40;;;;;;;-4.70;100.00;103218.69;10540726;28;20040;-60
2021/12/21 22:22:57;;;;;;;33.10;19.67;;;;;;;-4.73;100.00;103215.13;10541712;28;20040;-60
2021/12/21 22:27:59;;;;;;;48.97;23.00;;;;;;;-4.76;100.00;103209.88;10540788;28;20051;-60
2021/12/21 22:33:03;;;;;;;36.75;19.67;;;;;;;-4.65;100.00;103200.13;10541055;28;20052;-60
2021/12/21 22:38:06;;;;;;;46.38;22.38;;;;;;;-4.46;100.00;103196.69;10540645;28;20051;-61
2021/12/21 22:43:08;;;;;;;35.22;19.33;;;;;;;-4.19;100.00;103214.91;10540946;28;20079;-59
2021/12/21 22:48:11;;;;;;;36.30;19.42;;;;;;;-4.90;100.00;103183.72;10540660;28;20044;-59
2021/12/21 22:53:14;;;;;;;36.58;19.48;;;;;;;-5.05;100.00;103184.75;10540702;28;20059;-60
2021/12/21 22:58:17;;;;;;;40.88;20.02;;;;;;;-5.04;100.00;103188.19;10539175;28;20056;-61
2021/12/21 23:03:21;;;;;;;32.92;18.60;;;;;;;-4.45;100.00;103218.88;10540374;28;20048;-59
2021/12/21 23:08:23;;;;;;;37.90;19.63;;;;;;;-4.36;100.00;103212.50;10539931;28;20052;-60
2021/12/21 23:13:26;;;;;;;42.33;21.08;;;;;;;-4.40;100.00;103208.06;10539697;28;20047;-61
2021/12/21 23:18:28;;;;;;;43.03;22.20;;;;;;;-4.53;100.00;103200.66;10539897;28;20044;-59
2021/12/21 23:23:31;;;;;;;39.38;20.35;;;;;;;-4.79;100.00;103196.94;10539616;28;20404;-60
2021/12/21 23:28:33;;;;;;;38.58;20.10;;;;;;;-4.37;100.00;103226.09;10539594;28;20064;-60
2021/12/21 23:33:36;;;;;;;36.22;19.48;;;;;;;-4.15;100.00;103224.47;10539786;28;20052;-59
2021/12/21 23:38:39;;;;;;;45.28;20.88;;;;;;;-5.01;100.00;103184.91;10544658;28;20051;-61
2021/12/21 23:43:41;;;;;;;34.47;18.60;;;;;;;-5.00;100.00;103181.53;10547891;28;20047;-59